Time;durP1;ratioP1;P1;durP2;ratioP2;P2;SDS_P1;SDS_P2;PMS_P1;PMS_P2;Temp;Humidity;BMP_temperature;BMP_pressure;BME280_temperature;BME280_humidity;BME280_pressure;Samples;Min_cycle;Max_cycle;Signal;HPM_P1;HPM_P2
2022/03/06 00:01:36;;;;;;;;;;;4.90;62.20;;;;;;5072581;28;19970;-87
2022/03/06 00:04:01;;;;;;;;;;;4.80;58.90;;;;;;5072555;28;19913;-86
2022/03/06 00:06:27;;;;;;;;;;;4.80;60.50;;;;;;5072586;28;20401;-87
2022/03/06 00:08:52;;;;;;;;;;;4.80;61.80;;;;;;5072767;28;19948;-86
2022/03/06 00:11:18;;;;;;;;;;;5.00;62.60;;;;;;5072419;28;19908;-87
2022/03/06 00:13:43;;;;;;;;;;;5.00;61.40;;;;;;5034906;28;20323;-87
2022/03/06 00:16:09;;;;;;;;;;;5.10;61.30;;;;;;5052741;28;19931;-87
2022/03/06 00:18:37;;;;;;;;;;;5.10;58.00;;;;;;5052717;28;20451;-87
2022/03/06 00:21:03;;;;;;;;;;;5.10;52.60;;;;;;5070395;28;19939;-87
2022/03/06 00:23:28;;;;;;;;;;;5.10;51.60;;;;;;5074866;28;19952;-87
2022/03/06 00:25:54;;;;;;;;;;;5.20;51.40;;;;;;5076451;28;20427;-87
2022/03/06 00:28:19;;;;;;;;;;;5.20;51.10;;;;;;5076716;28;20386;-87
2022/03/06 00:30:46;;;;;;;;;;;5.30;50.10;;;;;;5060845;28;20429;-87
2022/03/06 00:33:12;;;;;;;;;;;5.40;51.30;;;;;;5056380;28;19916;-87
2022/03/06 00:35:37;;;;;;;;;;;5.30;56.40;;;;;;5071502;28;19916;-87
2022/03/06 00:38:03;;;;;;;;;;;5.00;58.10;;;;;;5056307;28;20369;-87
2022/03/06 00:40:29;;;;;;;;;;;5.00;58.20;;;;;;5057062;28;19921;-87
2022/03/06 00:42:54;;;;;;;;;;;5.00;58.70;;;;;;5056209;28;19909;-87
2022/03/06 00:45:20;;;;;;;;;;;5.10;59.40;;;;;;5056202;28;19909;-86
2022/03/06 00:47:46;;;;;;;;;;;5.10;60.10;;;;;;5056136;28;19991;-87
2022/03/06 00:50:11;;;;;;;;;;;5.20;59.20;;;;;;5066113;28;19962;-87
2022/03/06 00:52:38;;;;;;;;;;;5.20;59.90;;;;;;5076008;28;19909;-87
2022/03/06 00:55:04;;;;;;;;;;;5.20;59.80;;;;;;5075930;28;19934;-87
2022/03/06 00:57:30;;;;;;;;;;;5.20;59.10;;;;;;5075913;28;19999;-86
2022/03/06 00:59:55;;;;;;;;;;;5.20;59.20;;;;;;5074025;28;20347;-86
2022/03/06 01:02:21;;;;;;;;;;;5.10;57.30;;;;;;5074953;28;19913;-86
2022/03/06 01:04:46;;;;;;;;;;;5.10;55.80;;;;;;5060420;28;19920;-87
2022/03/06 01:07:12;;;;;;;;;;;5.10;57.10;;;;;;5072909;28;20382;-87
2022/03/06 01:09:37;;;;;;;;;;;5.00;58.60;;;;;;5075578;28;20003;-87
2022/03/06 01:12:03;;;;;;;;;;;5.00;59.80;;;;;;5075675;28;20374;-87
2022/03/06 01:14:29;;;;;;;;;;;5.00;59.10;;;;;;5075548;28;20263;-86
2022/03/06 01:16:54;;;;;;;;;;;4.90;56.40;;;;;;5074020;28;20285;-87
2022/03/06 01:19:20;;;;;;;;;;;4.90;56.50;;;;;;5075550;28;19915;-86
2022/03/06 01:21:46;;;;;;;;;;;4.90;55.10;;;;;;5075616;28;19962;-86
2022/03/06 01:24:12;;;;;;;;;;;5.00;55.60;;;;;;5075361;28;20326;-87
2022/03/06 01:26:37;;;;;;;;;;;4.90;55.30;;;;;;5075512;28;20274;-87
2022/03/06 01:29:03;;;;;;;;;;;4.90;54.70;;;;;;5055741;28;20281;-87
2022/03/06 01:31:29;;;;;;;;;;;4.90;54.80;;;;;;5055469;28;19909;-87
2022/03/06 01:33:55;;;;;;;;;;;4.90;54.50;;;;;;5069476;28;19934;-87
2022/03/06 01:36:21;;;;;;;;;;;5.00;54.90;;;;;;5075240;28;20401;-86
2022/03/06 01:38:47;;;;;;;;;;;5.00;53.80;;;;;;5057983;28;19920;-87
2022/03/06 01:41:12;;;;;;;;;;;5.00;51.00;;;;;;5054780;28;20023;-87
2022/03/06 01:43:38;;;;;;;;;;;5.00;50.40;;;;;;5055139;28;20286;-87
2022/03/06 01:46:03;;;;;;;;;;;5.00;50.70;;;;;;5055069;28;20005;-87
2022/03/06 01:48:29;;;;;;;;;;;5.10;49.70;;;;;;5068947;28;19908;-87
2022/03/06 01:50:54;;;;;;;;;;;5.10;49.50;;;;;;5075006;28;19912;-87
2022/03/06 01:53:20;;;;;;;;;;;5.10;49.90;;;;;;5074962;28;20064;-86
2022/03/06 01:55:46;;;;;;;;;;;5.10;50.80;;;;;;5074850;28;20423;-86
2022/03/06 01:58:12;;;;;;;;;;;5.10;51.40;;;;;;5062820;28;19912;-87
2022/03/06 02:00:50;;;;;;;;;;;5.00;51.00;;;;;;5055055;28;19917;-87
2022/03/06 02:03:19;;;;;;;;;;;5.10;51.30;;;;;;5057504;28;19963;-87
2022/03/06 02:05:44;;;;;;;;;;;5.00;51.10;;;;;;5074341;28;19912;-87
2022/03/06 02:08:10;;;;;;;;;;;5.00;51.40;;;;;;5074537;28;20388;-87
2022/03/06 02:10:36;;;;;;;;;;;5.00;50.80;;;;;;5069406;28;19915;-87
2022/03/06 02:13:02;;;;;;;;;;;5.10;51.00;;;;;;5074483;28;19920;-86
2022/03/06 02:15:28;;;;;;;;;;;5.00;51.60;;;;;;5074452;28;20008;-87
2022/03/06 02:17:53;;;;;;;;;;;5.10;51.70;;;;;;5069721;28;20011;-87
2022/03/06 02:20:21;;;;;;;;;;;5.00;52.10;;;;;;5061058;28;19924;-86
2022/03/06 02:22:50;;;;;;;;;;;5.00;52.20;;;;;;5054383;28;19909;-87
2022/03/06 02:25:20;;;;;;;;;;;5.00;52.10;;;;;;5054265;28;19909;-87
2022/03/06 02:27:47;;;;;;;;;;;5.00;52.20;;;;;;5058063;28;19940;-86
2022/03/06 02:30:22;;;;;;;;;;;5.00;51.70;;;;;;5054489;28;19913;-86
2022/03/06 02:32:48;;;;;;;;;;;5.00;50.80;;;;;;5059698;28;19909;-87
2022/03/06 02:35:14;;;;;;;;;;;5.00;50.80;;;;;;5074069;28;19999;-87
2022/03/06 02:37:40;;;;;;;;;;;5.00;50.90;;;;;;5071035;28;19948;-87
2022/03/06 02:40:07;;;;;;;;;;;5.00;50.00;;;;;;5053762;28;19999;-86
2022/03/06 02:42:34;;;;;;;;;;;5.00;49.60;;;;;;5053836;28;20496;-87
2022/03/06 02:45:00;;;;;;;;;;;5.00;49.10;;;;;;5033492;28;19947;-87
2022/03/06 02:47:26;;;;;;;;;;;5.00;48.80;;;;;;5035284;28;19936;-86
2022/03/06 02:49:52;;;;;;;;;;;5.10;48.80;;;;;;5054312;28;19912;-87
2022/03/06 02:52:18;;;;;;;;;;;5.10;49.70;;;;;;5054016;28;19916;-87
2022/03/06 02:54:43;;;;;;;;;;;5.10;50.70;;;;;;5071110;28;19966;-87
2022/03/06 02:57:09;;;;;;;;;;;5.10;49.40;;;;;;5073611;28;19908;-87
2022/03/06 02:59:35;;;;;;;;;;;5.20;49.00;;;;;;5057911;28;20412;-87
2022/03/06 03:02:00;;;;;;;;;;;5.20;48.30;;;;;;5053534;28;20281;-87
2022/03/06 03:04:26;;;;;;;;;;;5.20;48.20;;;;;;5057643;28;19913;-87
2022/03/06 03:06:52;;;;;;;;;;;5.30;47.90;;;;;;5073485;28;19908;-87
2022/03/06 03:09:21;;;;;;;;;;;5.30;47.70;;;;;;5073368;28;19940;-87
2022/03/06 03:11:47;;;;;;;;;;;5.30;46.80;;;;;;5073466;28;19987;-87
2022/03/06 03:14:13;;;;;;;;;;;5.30;46.70;;;;;;5059847;28;20019;-86
2022/03/06 03:16:39;;;;;;;;;;;5.30;46.70;;;;;;5053410;28;20393;-86
2022/03/06 03:19:05;;;;;;;;;;;5.30;47.00;;;;;;5063505;28;19912;-87
2022/03/06 03:21:30;;;;;;;;;;;5.30;47.10;;;;;;5073245;28;19938;-86
2022/03/06 03:23:56;;;;;;;;;;;5.20;47.30;;;;;;5062594;28;19952;-87
2022/03/06 03:26:21;;;;;;;;;;;5.20;47.00;;;;;;5035333;28;19920;-87
2022/03/06 03:28:47;;;;;;;;;;;5.20;47.00;;;;;;5067825;28;19912;-87
2022/03/06 03:31:13;;;;;;;;;;;5.20;47.50;;;;;;5073110;28;19909;-86
2022/03/06 03:33:38;;;;;;;;;;;5.10;47.50;;;;;;5065098;28;19913;-86
2022/03/06 03:36:04;;;;;;;;;;;5.10;47.40;;;;;;5053134;28;19916;-86
2022/03/06 03:38:29;;;;;;;;;;;5.10;47.20;;;;;;5053148;28;19909;-86
2022/03/06 03:40:55;;;;;;;;;;;5.10;47.60;;;;;;5052854;28;19921;-86
2022/03/06 03:43:21;;;;;;;;;;;5.10;47.00;;;;;;5054266;28;19920;-87
2022/03/06 03:45:47;;;;;;;;;;;5.10;47.40;;;;;;5072745;28;19935;-87
2022/03/06 03:48:12;;;;;;;;;;;5.10;48.00;;;;;;5070576;28;20409;-86
2022/03/06 03:50:38;;;;;;;;;;;5.00;49.20;;;;;;5052987;28;19996;-87
2022/03/06 03:53:03;;;;;;;;;;;5.00;47.90;;;;;;5055153;28;19928;-87
2022/03/06 03:55:29;;;;;;;;;;;5.00;47.80;;;;;;5066292;28;19913;-86
2022/03/06 03:57:54;;;;;;;;;;;5.00;47.30;;;;;;5055969;28;19909;-86
2022/03/06 04:00:20;;;;;;;;;;;5.00;47.00;;;;;;5057938;28;19964;-87
2022/03/06 04:02:45;;;;;;;;;;;5.10;46.80;;;;;;5068615;28;20281;-87
2022/03/06 04:05:11;;;;;;;;;;;5.10;46.50;;;;;;5076112;28;20385;-87
2022/03/06 04:07:36;;;;;;;;;;;5.10;47.00;;;;;;5067844;28;19912;-86
2022/03/06 04:10:02;;;;;;;;;;;5.20;46.70;;;;;;5076437;28;19917;-87
2022/03/06 04:12:28;;;;;;;;;;;5.20;45.90;;;;;;5076780;28;19919;-86
2022/03/06 04:14:53;;;;;;;;;;;5.20;45.60;;;;;;5076710;28;19908;-87
2022/03/06 04:17:19;;;;;;;;;;;5.20;45.90;;;;;;5064819;28;19913;-86
2022/03/06 04:19:44;;;;;;;;;;;5.20;46.30;;;;;;5056680;28;20344;-87
2022/03/06 04:22:10;;;;;;;;;;;5.20;45.90;;;;;;5056583;28;19920;-86
2022/03/06 04:24:35;;;;;;;;;;;5.10;45.80;;;;;;5056589;28;19909;-86
2022/03/06 04:27:01;;;;;;;;;;;5.10;45.90;;;;;;5065632;28;19940;-86
2022/03/06 04:29:27;;;;;;;;;;;5.10;46.50;;;;;;5063424;28;19966;-87
2022/03/06 04:31:52;;;;;;;;;;;5.00;47.00;;;;;;5062082;28;19920;-86
2022/03/06 04:34:18;;;;;;;;;;;5.10;48.60;;;;;;5076323;28;20282;-87
2022/03/06 04:36:43;;;;;;;;;;;5.00;49.40;;;;;;5069548;28;19913;-86
2022/03/06 04:39:09;;;;;;;;;;;5.00;49.60;;;;;;5056189;28;19909;-87
2022/03/06 04:41:34;;;;;;;;;;;4.80;49.90;;;;;;5056028;28;19927;-87
2022/03/06 04:44:00;;;;;;;;;;;4.70;49.80;;;;;;5056195;28;19916;-86
2022/03/06 04:46:26;;;;;;;;;;;4.50;50.60;;;;;;5041701;28;19913;-86
2022/03/06 04:48:51;;;;;;;;;;;4.30;52.00;;;;;;5076054;28;20008;-86
2022/03/06 04:51:17;;;;;;;;;;;4.20;52.60;;;;;;5076222;28;20389;-86
2022/03/06 04:53:43;;;;;;;;;;;4.10;53.10;;;;;;5075961;28;20281;-86
2022/03/06 04:56:08;;;;;;;;;;;4.10;54.10;;;;;;5074450;28;20362;-86
2022/03/06 04:58:34;;;;;;;;;;;4.20;55.10;;;;;;5055945;28;19908;-86
2022/03/06 05:00:59;;;;;;;;;;;4.10;54.90;;;;;;5055850;28;19917;-86
2022/03/06 05:03:25;;;;;;;;;;;4.00;55.90;;;;;;5056954;28;20008;-86
2022/03/06 05:05:51;;;;;;;;;;;4.00;56.00;;;;;;5055840;28;19909;-86
2022/03/06 05:08:16;;;;;;;;;;;4.00;58.00;;;;;;5073073;28;20011;-86
2022/03/06 05:10:42;;;;;;;;;;;3.90;58.40;;;;;;5075645;28;20003;-86
2022/03/06 05:13:09;;;;;;;;;;;3.90;57.60;;;;;;5075625;28;19909;-86
2022/03/06 05:15:35;;;;;;;;;;;3.90;58.30;;;;;;5075573;28;20412;-86
2022/03/06 05:18:01;;;;;;;;;;;3.80;59.00;;;;;;5073823;28;19913;-86
2022/03/06 05:20:27;;;;;;;;;;;3.90;57.60;;;;;;5075405;28;19979;-86
2022/03/06 05:22:52;;;;;;;;;;;3.90;57.70;;;;;;5075519;28;19913;-86
2022/03/06 05:25:18;;;;;;;;;;;3.90;58.40;;;;;;5075506;28;19916;-86
2022/03/06 05:27:43;;;;;;;;;;;3.80;57.40;;;;;;5073890;28;19913;-86
2022/03/06 05:30:10;;;;;;;;;;;3.80;59.10;;;;;;5064941;28;19912;-86
2022/03/06 05:32:36;;;;;;;;;;;3.80;59.10;;;;;;5066845;28;19981;-86
2022/03/06 05:35:01;;;;;;;;;;;3.70;59.30;;;;;;5075320;28;20082;-86
2022/03/06 05:37:27;;;;;;;;;;;3.70;59.60;;;;;;5062756;28;19912;-86
2022/03/06 05:39:52;;;;;;;;;;;3.60;59.20;;;;;;5055093;28;19913;-86
2022/03/06 05:42:19;;;;;;;;;;;3.50;59.40;;;;;;5055113;28;19916;-86
2022/03/06 05:44:45;;;;;;;;;;;3.50;59.70;;;;;;5055193;28;19909;-86
2022/03/06 05:47:10;;;;;;;;;;;3.50;60.20;;;;;;5064685;28;20363;-86
2022/03/06 05:49:36;;;;;;;;;;;3.50;59.30;;;;;;5075023;28;20453;-86
2022/03/06 05:52:02;;;;;;;;;;;3.60;59.80;;;;;;5075248;28;20334;-86
2022/03/06 05:54:28;;;;;;;;;;;3.60;60.10;;;;;;5075202;28;19912;-86
2022/03/06 05:56:54;;;;;;;;;;;3.60;60.00;;;;;;5067291;28;19920;-86
2022/03/06 05:59:19;;;;;;;;;;;3.50;61.20;;;;;;5054811;28;19909;-86
2022/03/06 06:01:45;;;;;;;;;;;3.40;61.40;;;;;;5055068;28;19917;-86
2022/03/06 06:04:12;;;;;;;;;;;3.40;61.80;;;;;;5072302;28;19938;-86
2022/03/06 06:06:38;;;;;;;;;;;3.30;62.30;;;;;;5069897;28;19917;-86
2022/03/06 06:09:04;;;;;;;;;;;3.30;61.90;;;;;;5054596;28;19995;-86
2022/03/06 06:12:46;;;;;;;;;;;3.20;60.70;;;;;;5111083;27;19912;-86
2022/03/06 06:15:12;;;;;;;;;;;3.10;60.90;;;;;;5111069;28;20010;-87
2022/03/06 06:17:37;;;;;;;;;;;3.00;61.20;;;;;;5110231;28;20373;-87
2022/03/06 06:20:04;;;;;;;;;;;3.00;61.00;;;;;;5110942;28;19908;-86
2022/03/06 06:22:31;;;;;;;;;;;3.10;60.70;;;;;;5111151;28;19958;-87
2022/03/06 06:24:57;;;;;;;;;;;3.20;61.20;;;;;;5110846;28;19908;-87
2022/03/06 06:27:22;;;;;;;;;;;3.30;59.00;;;;;;5099938;28;20041;-87
2022/03/06 06:29:48;;;;;;;;;;;3.40;57.70;;;;;;5090281;28;19912;-87
2022/03/06 06:32:14;;;;;;;;;;;3.50;55.30;;;;;;5091369;28;19916;-86
2022/03/06 06:34:39;;;;;;;;;;;3.60;53.70;;;;;;5090374;28;19916;-87
2022/03/06 06:37:05;;;;;;;;;;;3.70;53.20;;;;;;5098631;28;19932;-87
2022/03/06 06:39:31;;;;;;;;;;;3.80;52.50;;;;;;5110573;28;19930;-87
2022/03/06 06:41:56;;;;;;;;;;;3.90;52.00;;;;;;5110533;28;19908;-87
2022/03/06 06:44:22;;;;;;;;;;;4.00;50.80;;;;;;5110433;28;19915;-87
2022/03/06 06:46:47;;;;;;;;;;;4.20;50.50;;;;;;5108639;28;19915;-87
2022/03/06 06:49:13;;;;;;;;;;;4.40;51.20;;;;;;5110392;28;19908;-87
2022/03/06 06:51:39;;;;;;;;;;;4.40;48.90;;;;;;5110287;28;20361;-87
2022/03/06 06:54:05;;;;;;;;;;;4.50;48.90;;;;;;5110511;28;19914;-87
2022/03/06 06:56:31;;;;;;;;;;;4.60;48.80;;;;;;5107767;28;19963;-87
2022/03/06 06:58:56;;;;;;;;;;;4.80;48.80;;;;;;5110112;28;19908;-87
2022/03/06 07:01:22;;;;;;;;;;;4.90;50.40;;;;;;5108040;28;19912;-87
2022/03/06 07:03:48;;;;;;;;;;;5.00;51.20;;;;;;5110110;28;20289;-86
2022/03/06 07:06:14;;;;;;;;;;;5.10;51.30;;;;;;5102015;28;19919;-87
2022/03/06 07:08:40;;;;;;;;;;;5.30;49.30;;;;;;5089596;28;19909;-87
2022/03/06 07:11:05;;;;;;;;;;;5.40;48.90;;;;;;5089358;28;19970;-86
2022/03/06 07:13:31;;;;;;;;;;;5.60;48.90;;;;;;5089607;28;20384;-87
2022/03/06 07:15:56;;;;;;;;;;;5.80;48.40;;;;;;5091577;28;20387;-87
2022/03/06 07:18:22;;;;;;;;;;;6.00;47.20;;;;;;5103901;28;19912;-87
2022/03/06 07:20:47;;;;;;;;;;;6.20;46.20;;;;;;5109804;28;19958;-87
2022/03/06 07:23:14;;;;;;;;;;;6.30;46.10;;;;;;5100994;28;20144;-87
2022/03/06 07:25:40;;;;;;;;;;;6.40;46.00;;;;;;5094267;28;19931;-87
2022/03/06 07:28:06;;;;;;;;;;;6.50;45.90;;;;;;5095603;28;19912;-87
2022/03/06 07:30:31;;;;;;;;;;;6.60;45.30;;;;;;5095802;28;19915;-87
2022/03/06 07:32:57;;;;;;;;;;;6.70;44.90;;;;;;5092565;28;19908;-87
2022/03/06 07:35:23;;;;;;;;;;;6.80;43.40;;;;;;5095846;28;19919;-87
2022/03/06 07:37:48;;;;;;;;;;;6.90;43.20;;;;;;5075966;28;19923;-87
2022/03/06 07:40:15;;;;;;;;;;;6.90;43.20;;;;;;5074371;28;20353;-87
2022/03/06 07:42:41;;;;;;;;;;;7.00;42.60;;;;;;5075451;28;19954;-87
2022/03/06 07:45:07;;;;;;;;;;;7.10;42.50;;;;;;5083499;28;19908;-87
2022/03/06 07:47:32;;;;;;;;;;;7.20;42.50;;;;;;5095676;28;19951;-87
2022/03/06 07:49:58;;;;;;;;;;;7.20;41.70;;;;;;5095621;28;19912;-87
2022/03/06 07:52:24;;;;;;;;;;;7.20;41.60;;;;;;5095538;28;19961;-87
2022/03/06 07:54:49;;;;;;;;;;;7.20;41.80;;;;;;5087885;28;19962;-87
2022/03/06 07:57:15;;;;;;;;;;;7.30;41.90;;;;;;5075290;28;19913;-87
2022/03/06 07:59:40;;;;;;;;;;;7.20;40.80;;;;;;5075246;28;19909;-87
2022/03/06 08:02:06;;;;;;;;;;;7.30;40.20;;;;;;5094452;28;19908;-87
2022/03/06 08:04:31;;;;;;;;;;;7.30;41.70;;;;;;5090424;28;20383;-87
2022/03/06 08:06:57;;;;;;;;;;;7.30;41.00;;;;;;5075118;28;19915;-87
2022/03/06 08:09:25;;;;;;;;;;;7.20;41.30;;;;;;5074984;28;19916;-87
2022/03/06 08:11:54;;;;;;;;;;;7.20;42.40;;;;;;5074831;28;19920;-87
2022/03/06 08:14:19;;;;;;;;;;;7.10;42.50;;;;;;5076960;28;19909;-87
2022/03/06 08:16:45;;;;;;;;;;;7.10;43.00;;;;;;5095123;28;19999;-87
2022/03/06 08:19:10;;;;;;;;;;;7.10;43.00;;;;;;5095103;28;19989;-87
2022/03/06 08:21:36;;;;;;;;;;;7.10;43.20;;;;;;5095057;28;19912;-87
2022/03/06 08:24:01;;;;;;;;;;;7.10;43.20;;;;;;5095088;28;19915;-87
2022/03/06 08:26:27;;;;;;;;;;;7.20;43.60;;;;;;5075016;28;19909;-87
2022/03/06 08:28:52;;;;;;;;;;;7.20;43.50;;;;;;5075697;28;20285;-87
2022/03/06 08:31:18;;;;;;;;;;;7.40;43.00;;;;;;5081237;28;20263;-87
2022/03/06 08:33:44;;;;;;;;;;;7.40;43.20;;;;;;5088414;28;19912;-87
2022/03/06 08:36:10;;;;;;;;;;;7.50;42.30;;;;;;5074031;28;19966;-87
2022/03/06 08:38:36;;;;;;;;;;;7.60;40.90;;;;;;5074744;28;19908;-87
2022/03/06 08:41:01;;;;;;;;;;;7.70;40.50;;;;;;5082388;28;19912;-87
2022/03/06 08:43:27;;;;;;;;;;;7.80;41.30;;;;;;5093794;28;19908;-87
2022/03/06 08:45:52;;;;;;;;;;;7.80;41.30;;;;;;5074322;28;19908;-87
2022/03/06 08:48:18;;;;;;;;;;;7.90;41.10;;;;;;5074272;28;20010;-87
2022/03/06 08:50:43;;;;;;;;;;;8.00;40.40;;;;;;5079414;28;19916;-87
2022/03/06 08:53:09;;;;;;;;;;;8.10;40.90;;;;;;5094367;28;19908;-87
2022/03/06 08:55:34;;;;;;;;;;;8.40;38.80;;;;;;5078378;28;20289;-87
2022/03/06 08:58:00;;;;;;;;;;;8.50;37.70;;;;;;5074088;28;19912;-87
2022/03/06 09:00:26;;;;;;;;;;;8.70;37.70;;;;;;5088795;28;19912;-87
2022/03/06 09:02:51;;;;;;;;;;;8.80;37.60;;;;;;5094140;28;19914;-87
2022/03/06 09:05:19;;;;;;;;;;;8.90;36.70;;;;;;5094195;28;19994;-87
2022/03/06 09:07:44;;;;;;;;;;;9.00;39.80;;;;;;5084156;28;20361;-87
2022/03/06 09:10:10;;;;;;;;;;;9.10;38.40;;;;;;5073798;28;19915;-87
2022/03/06 09:12:35;;;;;;;;;;;9.10;38.00;;;;;;5073569;28;19990;-87
2022/03/06 09:15:01;;;;;;;;;;;9.20;36.60;;;;;;5082565;28;19947;-87
2022/03/06 09:17:26;;;;;;;;;;;9.30;35.20;;;;;;5093994;28;20010;-87
2022/03/06 09:19:52;;;;;;;;;;;9.30;36.80;;;;;;5093954;28;19962;-87
2022/03/06 09:22:17;;;;;;;;;;;9.30;35.20;;;;;;5094165;28;20003;-86
2022/03/06 09:24:43;;;;;;;;;;;9.30;34.70;;;;;;5086831;28;20003;-87
2022/03/06 09:27:08;;;;;;;;;;;9.30;34.30;;;;;;5073517;28;19952;-87
2022/03/06 09:29:34;;;;;;;;;;;9.40;34.40;;;;;;5077042;28;19934;-87
2022/03/06 09:32:00;;;;;;;;;;;9.40;33.70;;;;;;5093650;28;19963;-87
2022/03/06 09:34:25;;;;;;;;;;;9.30;35.30;;;;;;5089339;28;19916;-87
2022/03/06 09:36:51;;;;;;;;;;;9.30;34.90;;;;;;5073323;28;19953;-87
2022/03/06 09:39:16;;;;;;;;;;;9.30;37.40;;;;;;5073397;28;19908;-87
2022/03/06 09:41:42;;;;;;;;;;;9.30;36.60;;;;;;5073360;28;19951;-87
2022/03/06 09:44:09;;;;;;;;;;;9.40;37.60;;;;;;5074459;28;20011;-87
2022/03/06 09:46:35;;;;;;;;;;;9.40;36.50;;;;;;5093238;28;19919;-87
2022/03/06 09:49:02;;;;;;;;;;;9.40;37.30;;;;;;5093432;28;19940;-86
2022/03/06 09:51:31;;;;;;;;;;;9.40;36.40;;;;;;5093389;28;20003;-87
2022/03/06 09:53:57;;;;;;;;;;;9.30;35.00;;;;;;5093255;28;19995;-87
2022/03/06 09:56:22;;;;;;;;;;;9.20;36.70;;;;;;5077890;28;19951;-87
2022/03/06 09:58:49;;;;;;;;;;;9.30;36.00;;;;;;5073182;28;20375;-87
2022/03/06 10:01:14;;;;;;;;;;;9.40;34.20;;;;;;5089735;28;19967;-86
2022/03/06 10:03:40;;;;;;;;;;;9.40;35.20;;;;;;5093340;28;19908;-87
2022/03/06 10:06:07;;;;;;;;;;;9.50;35.20;;;;;;5075602;28;20043;-87
2022/03/06 10:08:32;;;;;;;;;;;9.60;35.70;;;;;;5073053;28;19909;-87
2022/03/06 10:11:06;;;;;;;;;;;9.70;35.60;;;;;;5072862;28;19970;-87
2022/03/06 10:13:33;;;;;;;;;;;9.80;35.10;;;;;;5073059;28;19915;-87
2022/03/06 10:16:00;;;;;;;;;;;9.80;33.10;;;;;;5088961;28;19916;-87
2022/03/06 10:18:28;;;;;;;;;;;9.80;32.80;;;;;;5093163;28;19909;-87
2022/03/06 10:20:53;;;;;;;;;;;9.90;33.00;;;;;;5093102;28;19909;-87
2022/03/06 10:23:26;;;;;;;;;;;9.90;32.40;;;;;;5093114;28;19915;-87
2022/03/06 10:26:03;;;;;;;;;;;9.90;31.70;;;;;;5077855;28;19920;-87
2022/03/06 10:28:29;;;;;;;;;;;9.90;31.20;;;;;;5073165;28;19912;-87
2022/03/06 10:31:02;;;;;;;;;;;9.90;32.80;;;;;;5086014;28;19938;-87
2022/03/06 10:33:27;;;;;;;;;;;9.90;31.10;;;;;;5073433;28;19919;-87
2022/03/06 10:35:55;;;;;;;;;;;9.90;30.80;;;;;;5071510;28;19908;-87
2022/03/06 10:38:22;;;;;;;;;;;10.00;34.90;;;;;;5071558;28;19915;-87
2022/03/06 10:40:47;;;;;;;;;;;9.90;35.20;;;;;;5072732;28;19999;-87
2022/03/06 10:43:22;;;;;;;;;;;9.90;33.00;;;;;;5072879;28;19963;-87
2022/03/06 10:45:48;;;;;;;;;;;9.90;35.00;;;;;;5082897;28;19919;-87
2022/03/06 10:48:14;;;;;;;;;;;10.00;33.00;;;;;;5092853;28;19915;-86
2022/03/06 10:50:40;;;;;;;;;;;10.10;31.30;;;;;;5092716;28;19994;-87
2022/03/06 10:53:22;;;;;;;;;;;10.00;30.70;;;;;;5076037;28;19912;-86
2022/03/06 10:55:48;;;;;;;;;;;10.10;32.40;;;;;;5073690;28;20382;-87
2022/03/06 10:58:13;;;;;;;;;;;10.20;35.20;;;;;;5074352;28;19934;-87
2022/03/06 11:00:40;;;;;;;;;;;10.40;33.40;;;;;;5081781;28;19959;-87
2022/03/06 11:03:07;;;;;;;;;;;10.50;31.30;;;;;;5096578;28;19908;-87
2022/03/06 11:05:33;;;;;;;;;;;10.60;32.50;;;;;;5096155;28;19908;-87
2022/03/06 11:07:59;;;;;;;;;;;10.70;29.30;;;;;;5076342;28;19912;-87
2022/03/06 11:10:25;;;;;;;;;;;10.70;31.60;;;;;;5080939;28;19919;-87
2022/03/06 11:12:50;;;;;;;;;;;10.80;30.10;;;;;;5095763;28;19920;-87
2022/03/06 11:15:16;;;;;;;;;;;11.00;29.10;;;;;;5094031;28;20002;-87
2022/03/06 11:17:42;;;;;;;;;;;11.10;30.40;;;;;;5076018;28;20288;-87
2022/03/06 11:20:08;;;;;;;;;;;11.10;29.10;;;;;;5078299;28;19916;-87
2022/03/06 11:22:43;;;;;;;;;;;11.30;29.70;;;;;;5089054;28;19919;-87
2022/03/06 11:25:12;;;;;;;;;;;11.40;29.40;;;;;;5076098;28;20388;-87
2022/03/06 11:27:40;;;;;;;;;;;11.40;29.50;;;;;;5082986;28;20011;-87
2022/03/06 11:30:07;;;;;;;;;;;11.50;29.90;;;;;;5095943;28;20009;-87
2022/03/06 11:32:35;;;;;;;;;;;11.60;28.40;;;;;;5076755;28;19962;-87
2022/03/06 11:35:17;;;;;;;;;;;11.80;28.30;;;;;;5075811;28;19915;-87
2022/03/06 11:37:49;;;;;;;;;;;11.80;29.50;;;;;;5083454;28;19912;-87
2022/03/06 11:40:33;;;;;;;;;;;12.10;27.90;;;;;;5095796;28;20384;-87
2022/03/06 11:42:59;;;;;;;;;;;12.30;27.80;;;;;;5095825;28;19947;-87
2022/03/06 11:45:43;;;;;;;;;;;12.40;28.80;;;;;;5092314;28;20447;-87
2022/03/06 11:48:09;;;;;;;;;;;12.50;27.30;;;;;;5081033;28;20046;-87
2022/03/06 11:50:35;;;;;;;;;;;12.50;26.00;;;;;;5091046;28;19959;-87
2022/03/06 11:53:18;;;;;;;;;;;12.40;26.70;;;;;;5095288;28;19990;-87
2022/03/06 11:55:43;;;;;;;;;;;12.10;28.60;;;;;;5075305;28;20374;-87
2022/03/06 11:58:09;;;;;;;;;;;12.10;26.30;;;;;;5087810;28;19922;-87
2022/03/06 12:00:36;;;;;;;;;;;12.10;26.10;;;;;;5093740;28;19912;-87
2022/03/06 12:03:01;;;;;;;;;;;11.90;27.30;;;;;;5095151;28;20043;-87
2022/03/06 12:05:43;;;;;;;;;;;11.90;27.30;;;;;;5075248;28;20003;-87
2022/03/06 12:08:09;;;;;;;;;;;12.30;28.00;;;;;;5075153;28;19912;-87
2022/03/06 12:10:35;;;;;;;;;;;12.70;28.50;;;;;;5093396;28;20318;-88
2022/03/06 12:13:01;;;;;;;;;;;13.10;26.80;;;;;;5095125;28;19908;-87
2022/03/06 12:15:28;;;;;;;;;;;13.40;27.20;;;;;;5094795;28;20413;-87
2022/03/06 12:18:01;;;;;;;;;;;13.70;25.60;;;;;;5095115;28;19962;-87
2022/03/06 12:20:27;;;;;;;;;;;13.90;25.40;;;;;;5077869;28;20382;-87
2022/03/06 12:22:54;;;;;;;;;;;13.90;26.30;;;;;;5074856;28;20043;-87
2022/03/06 12:25:24;;;;;;;;;;;13.50;28.80;;;;;;5093488;28;19958;-87
2022/03/06 12:28:02;;;;;;;;;;;13.40;27.80;;;;;;5094957;28;20362;-87
2022/03/06 12:30:28;;;;;;;;;;;14.10;26.80;;;;;;5077580;28;20378;-87
2022/03/06 12:32:54;;;;;;;;;;;15.00;25.30;;;;;;5074569;28;19918;-88
2022/03/06 12:35:22;;;;;;;;;;;16.00;24.00;;;;;;5074573;28;19924;-87
2022/03/06 12:37:50;;;;;;;;;;;17.00;23.50;;;;;;5076834;28;19920;-87
2022/03/06 12:40:17;;;;;;;;;;;17.90;21.30;;;;;;5094709;28;19915;-88
2022/03/06 12:42:43;;;;;;;;;;;18.60;20.50;;;;;;5094635;28;20289;-87
2022/03/06 12:45:10;;;;;;;;;;;18.40;19.80;;;;;;5081063;28;19916;-87
2022/03/06 12:47:36;;;;;;;;;;;18.20;20.30;;;;;;5074382;28;19966;-87
2022/03/06 12:50:03;;;;;;;;;;;18.30;19.80;;;;;;5090108;28;19947;-87
2022/03/06 12:52:29;;;;;;;;;;;18.10;19.70;;;;;;5090999;28;20010;-87
2022/03/06 12:54:56;;;;;;;;;;;17.80;20.20;;;;;;5075269;28;19913;-87
2022/03/06 12:57:27;;;;;;;;;;;17.60;20.80;;;;;;5074147;28;19943;-87
2022/03/06 12:59:52;;;;;;;;;;;18.00;22.40;;;;;;5092656;28;20006;-87
2022/03/06 13:02:19;;;;;;;;;;;18.30;22.20;;;;;;5092771;28;20394;-88
2022/03/06 13:04:48;;;;;;;;;;;18.40;21.20;;;;;;5074024;28;19915;-87
2022/03/06 13:07:14;;;;;;;;;;;18.30;20.50;;;;;;5073998;28;19916;-87
2022/03/06 13:09:39;;;;;;;;;;;18.60;19.90;;;;;;5073808;28;20281;-87
2022/03/06 13:12:05;;;;;;;;;;;18.30;22.00;;;;;;5073607;28;20003;-87
2022/03/06 13:14:34;;;;;;;;;;;17.80;20.60;;;;;;5093431;28;19979;-87
2022/03/06 13:17:00;;;;;;;;;;;18.60;19.90;;;;;;5094287;28;19912;-87
2022/03/06 13:19:26;;;;;;;;;;;19.30;20.70;;;;;;5094015;28;19998;-87
2022/03/06 13:21:52;;;;;;;;;;;20.00;18.90;;;;;;5074959;28;20337;-87
2022/03/06 13:24:17;;;;;;;;;;;19.70;19.80;;;;;;5073924;28;19915;-87
2022/03/06 13:26:43;;;;;;;;;;;19.80;20.40;;;;;;5073609;28;19922;-87
2022/03/06 13:29:12;;;;;;;;;;;18.80;19.70;;;;;;5074574;28;19916;-87
2022/03/06 13:31:46;;;;;;;;;;;18.90;21.60;;;;;;5072114;28;20273;-87
2022/03/06 13:34:13;;;;;;;;;;;18.60;20.80;;;;;;5072207;28;20281;-87
2022/03/06 13:36:39;;;;;;;;;;;18.20;20.50;;;;;;5089940;28;19923;-87
2022/03/06 13:39:23;;;;;;;;;;;18.00;21.40;;;;;;5093681;28;19908;-87
2022/03/06 13:41:50;;;;;;;;;;;18.00;22.50;;;;;;5093643;28;19916;-87
2022/03/06 13:44:15;;;;;;;;;;;17.60;21.30;;;;;;5080070;28;20373;-87
2022/03/06 13:46:41;;;;;;;;;;;17.70;21.50;;;;;;5073592;28;19991;-87
2022/03/06 13:49:10;;;;;;;;;;;18.60;22.10;;;;;;5073718;28;19931;-87
2022/03/06 13:51:36;;;;;;;;;;;18.50;20.50;;;;;;5073210;28;20073;-87
2022/03/06 13:54:03;;;;;;;;;;;18.80;20.50;;;;;;5073291;28;19958;-87
2022/03/06 13:56:30;;;;;;;;;;;19.60;21.70;;;;;;5073208;28;19909;-87
2022/03/06 13:58:57;;;;;;;;;;;19.90;22.90;;;;;;5078622;28;19912;-88
2022/03/06 14:01:23;;;;;;;;;;;20.90;19.50;;;;;;5073148;28;19913;-87
2022/03/06 14:03:56;;;;;;;;;;;21.70;18.60;;;;;;5073129;28;19912;-87
2022/03/06 14:06:31;;;;;;;;;;;22.30;17.30;;;;;;5073111;28;20370;-87
2022/03/06 14:08:57;;;;;;;;;;;22.30;17.80;;;;;;5092343;28;19978;-87
2022/03/06 14:11:26;;;;;;;;;;;22.70;17.90;;;;;;5096410;22;20373;-87
2022/03/06 14:13:53;;;;;;;;;;;21.20;17.30;;;;;;5113077;28;19919;-87
2022/03/06 14:16:19;;;;;;;;;;;21.20;18.60;;;;;;5113836;28;19912;-87
2022/03/06 14:18:44;;;;;;;;;;;21.60;18.30;;;;;;5113186;28;19965;-87
2022/03/06 14:21:28;;;;;;;;;;;22.10;17.60;;;;;;5113024;28;19912;-87
2022/03/06 14:23:55;;;;;;;;;;;22.00;18.30;;;;;;5112154;28;20243;-87